Ojai, California
Current Conditions -  °F | °C
As of 7:51 AM on Sunday 25 Jan 2015 (Local Time) from KOXR Reporting Station
Clear Clear  
Wind Chill: 66°   Ceiling: Unl
Heat Index: 66°   Visibility: 10mi
Dew Point: 28°   Wind: 6mph
Humidity: 24%   Direction: 70°ENE
Pressure: 30.02"   Gusts: NA
Location:  34.44°N, 119.24°W
Report Text: KOXR 251551Z 07005KT 10SM CLR 19/M02 A3002 RMK AO2 SLP165 T01891022
Loading
Personal Weather Stations






























Interactive Weather Map New forecast layout! Learn more

10-Day Weather Forecast

Advertisements
Track Severe Weather on mobile